WBKS

Sandakan Airport

Airport
ICAO code
WBKS
IATA Code
SDK
Summary
ICAO Region
APAC
ICAO Territory
Location

Bandar Sibuga, Sabah

Serving
Sandakan
Elevation
46 ft
Coordinates
5° 54' 3" N , 118° 3' 34" E
KCC
Metar
WBKS 192200Z VRB02KT 9999 FEW015 26/25 Q1007

Domestic airport serving Sandakan, Sabah, Malaysia.

Airport map

Aerial View

SKYbrary Partners:

Safety knowledge contributed by: